This is the latest recevied weather packets stored in our database for station/object N0FDH. If no packets are shown the sender has not sent any weather packets the latest 1 day(s).
| Time | Temp. | Humidity | Pressure | Rain* | Wind** | Luminosity | Snow |
|---|---|---|---|---|---|---|---|
| 1777995313 | 5° C | 56% | 1009.4 hPa | 0 mm | 1.79 m/s, 320° | 316 W/m² | - |
| 1777995009 | 5° C | 55% | 1009.3 hPa | 0 mm | 3.58 m/s, 312° | 298 W/m² | - |
| 1777994706 | 4.44° C | 56% | 1009.2 hPa | 0 mm | 0.89 m/s, 292° | 282 W/m² | - |
| 1777994401 | 4.44° C | 59% | 1009.1 hPa | 0 mm | 3.58 m/s, 76° | 228 W/m² | - |
| 1777994097 | 4.44° C | 58% | 1009.1 hPa | 0 mm | 2.68 m/s, 317° | 215 W/m² | - |
| 1777993795 | 4.44° C | 56% | 1009 hPa | 0 mm | 3.58 m/s, 229° | 206 W/m² | - |
| 1777993491 | 4.44° C | 55% | 1009.2 hPa | 0 mm | 4.02 m/s, 265° | 220 W/m² | - |
| 1777993191 | 4.44° C | 57% | 1009 hPa | 0 mm | 3.13 m/s, 322° | 212 W/m² | - |
| 1777992889 | 4.44° C | 54% | 1009.1 hPa | 0 mm | 3.13 m/s, 320° | 203 W/m² | - |
| 1777992587 | 5° C | 56% | 1008.9 hPa | 0 mm | 3.13 m/s, 216° | 293 W/m² | - |
| 1777992284 | 4.44° C | 53% | 1008.9 hPa | 0 mm | 2.68 m/s, 287° | 245 W/m² | - |
| 1777991982 | 3.89° C | 54% | 1008.8 hPa | 0 mm | 1.79 m/s, 258° | 195 W/m² | - |
| 1777991679 | 4.44° C | 57% | 1008.9 hPa | 0 mm | 2.68 m/s, 353° | 215 W/m² | - |
| 1777991376 | 4.44° C | 54% | 1008.9 hPa | 0 mm | 3.58 m/s, 282° | 204 W/m² | - |
| 1777991073 | 3.89° C | 58% | 1008.7 hPa | 0 mm | 1.79 m/s, 301° | 166 W/m² | - |
| 1777990771 | 3.89° C | 58% | 1008.8 hPa | 0 mm | 2.68 m/s, 304° | 152 W/m² | - |
| 1777990467 | 3.89° C | 58% | 1008.7 hPa | 0 mm | 1.79 m/s, 316° | 134 W/m² | - |
| 1777990165 | 3.89° C | 57% | 1008.8 hPa | 0 mm | 3.13 m/s, 329° | 237 W/m² | - |
| 1777989861 | 3.89° C | 55% | 1008.8 hPa | 0 mm | 0.89 m/s, 338° | 258 W/m² | - |
| 1777989558 | 3.89° C | 57% | 1008.7 hPa | 0 mm | 2.24 m/s, 324° | 243 W/m² | - |
| 1777989255 | 3.33° C | 58% | 1008.7 hPa | 0 mm | 1.79 m/s, 342° | 155 W/m² | - |
| 1777988951 | 2.78° C | 56% | 1008.6 hPa | 0 mm | 3.13 m/s, 326° | 120 W/m² | - |
| 1777988647 | 2.78° C | 62% | 1008.5 hPa | 0 mm | 2.68 m/s, 324° | 62 W/m² | - |
| 1777988344 | 2.78° C | 57% | 1008.4 hPa | 0 mm | 2.68 m/s, 319° | 103 W/m² | - |
| 1777988041 | 2.78° C | 61% | 1008.5 hPa | 0 mm | 2.24 m/s, 328° | 59 W/m² | - |
* Rain latest hour (hover to see other rain measurements)
** Current wind speed in m/s (hover to see current wind gust speed)